EDGS METAR and TAF | Updated Today

EDGS METAR

Siegerland Airport

Observation time: 25 min. ago

EDGS 251920Z AUTO 28005KT 230V310 9999 // FEW056/// OVC066/// 14/05 Q////

Need help? Read our tutorial on how to read METARs or read the parsed version below.

Siegerland Airport (EDGS) METAR

  • Weather conditions on Wed, 25 May 2022 19:20:00 +0000 (25 min. ago):
  • Present conditions: Dry
  • Clouds: A few at 1707 meters; overcast sky at 2012 meters
  • Visibility: Greater than 10 km
  • Wind: 280 degrees at 5 knots
  • Temperature: 14 celsius
  • Dew point: 5 celsius
  • Pressure: 0 millibars
  • Remarks: None


Useful to know...

EDGS TAF

Siegerland Airport

TAF EDGS 251700Z 2518/2603 25009KT 9999 SCT045 BECMG 2601/2603 BKN012
Observation time: 2:45 hr. ago
Need help? Read our tutorial on how to read TAFs or read the parsed version below.

Parsed version of TAF for Siegerland Airport (EDGS)

  • From 25 May at 18:00 UTC, to day 26 of the month at 03:00 UTC
  • Clouds: Scattered at 1372 meters
  • Visibility: Greater than 10 km
  • Wind: 250 degrees at 9
  • Expected to arise soon, from 26 May at 01:00 UTC, to day 26 of the month at 03:00 UTC
  • Clouds: Broken sky at 366 meters